Ana Sayfa
METAR-TAF:

METAR-TAF

Havaalanları :

El Monte Airport

El Monte, Kaliforniya, Amerika Birleşik Devletleri

Enlem: 34-05N, Boylam: 118-02W, yükseklik: 90 m

Güncel hava durumu gözlemi

Rapor saat 01:45 UTC de 49 dakika önce yapıldı.
Rüzgar güneybatıdan 5 kt
Sıcaklık 14°C
Nem 72%
Basınç 1021 hPa
Görüş mesafesi: 16.1 km
5000 ft yükseklikte parçalı çok bulutlu

METAR: KEMT 220145Z 23005KT 10SM BKN050 14/09 A3015

Saat: 18:34 (02:34 UTC)


TAF: eksik

4.000'den fazla havaalanı için hava durumu gözlemleri ve tahminleri (METAR ve TAF raporları).

Kullanılabilir istasyonlar harita üzerinde sarı ve kırmızı noktalarla gösterilir.

İstasyonun adını görmek için fareyi noktanın üzerinde gezdirin.

Sonrasında hava gözlem ve tahminlerini görmek için tıklayın.

Haritayı değiştirmek için: yaklaştırmak için siyah artı işaretli yeşil düğmeye ve uzaklaştırmak için de eksi işaretli düğmeye hızla tıklayın; bitişik haritalar için yeşil okları kullanın.


METAR-TAF: